Hauptseite
METAR-TAF:

METAR-TAF

Flughäfen :

Pohnpei, Mikronesien

Flughafen Pohnpei

Breite: 06-59N, Länge: 158-12E, Höhe: 2 m

Beobachtung

Neuester Wetterbericht von vor 35 Minuten, um 01:50 UTC
Wind 5 kt aus Ost
Temperatur 30°C
Luftfeuchtigkeit 75%
Luftdruck 1009 hPa
Sichtweite: 24.1 km
Aufgelockert bewölkt in der Höhe von 1800 ft
Durchbrochene Bewölkung in der Höhe von 13000 ft
Geschlossene Wolkendecke in der Höhe von 30000 ft

METAR: PTPN 230150Z 08005KT 15SM SCT018 BKN130 OVC300 30/25 A2980

Zeit: 13:25 (02:25 UTC)

Prognose

Neuester Wetterbericht von vor 2 Stunden und 56 Minuten, um 23:29 UTC
Gültige Prognose vom 23 um 00 UTC bis 23 um 24 UTC
Wind 7 kt aus Südost
Sichtweite: 10 km
Aufgelockert bewölkt in der Höhe von 1800 ft
Durchbrochene Bewölkung in der Höhe von 13000 ft
Schauer in der Nähe

TAF: PTPN 222329Z 2300/2324 13007KT P6SM VCSH SCT018 BKN130

Wetterbeobachtungen und Prognosen von mehr als 4000 Flughäfen (METAR und TAF Bericht).

Die verfügbaren Stationen werden durch gelbe und rote Markierungen auf der Karte dargestellt.

Führen Sie die Maus auf sie, um den Namen der Station zu sehen.

Darauf klicken, um die Beobachtung von Wetterbeobachtungen und Prognosen zu sehen.

Um die Karte zu ändern : klicken Sie auf den grünen Tasten mit einem schwarzen Kreuz Zum Vergrößern, auf den grünen Button mit einem Gedankenstrich zu verkleinern, oder auf die grünen Pfeile für benachbarte Karten.


METAR-TAF: